Time;durP1;ratioP1;P1;durP2;ratioP2;P2;SDS_P1;SDS_P2;PMS_P1;PMS_P2;Temp;Humidity;BMP_temperature;BMP_pressure;BME280_temperature;BME280_humidity;BME280_pressure;Samples;Min_cycle;Max_cycle;Signal;HPM_P1;HPM_P2
2024/01/10 00:01:27;;;;;;;;;;;;;;;-0.92;51.99;101601.56;4446878;32;33836;-82
2024/01/10 00:03:54;;;;;;;;;;;;;;;-0.78;51.94;101604.59;4463850;32;35083;-81
2024/01/10 00:06:23;;;;;;;;;;;;;;;-0.90;52.16;101594.72;4457511;32;32047;-80
2024/01/10 00:08:50;;;;;;;;;;;;;;;-0.67;51.18;101598.00;4445183;32;33764;-80
2024/01/10 00:11:18;;;;;;;;;;;;;;;-0.91;51.52;101603.31;4450095;32;33482;-80
2024/01/10 00:13:46;;;;;;;;;;;;;;;-0.89;51.41;101593.91;4448582;32;34422;-80
2024/01/10 00:16:14;;;;;;;;;;;;;;;-0.72;50.87;101602.19;4449382;32;33318;-79
2024/01/10 00:18:41;;;;;;;;;;;;;;;-0.65;50.65;101605.88;4446785;32;34088;-80
2024/01/10 00:21:10;;;;;;;;;;;;;;;-0.89;51.27;101609.44;4435417;32;33203;-80
2024/01/10 00:23:37;;;;;;;;;;;;;;;-1.08;52.00;101609.69;4437288;32;34479;-79
2024/01/10 00:26:05;;;;;;;;;;;;;;;-1.18;52.58;101605.06;4440431;32;33076;-80
2024/01/10 00:28:32;;;;;;;;;;;;;;;-1.26;52.91;101606.50;4460732;32;33680;-80
2024/01/10 00:31:03;;;;;;;;;;;;;;;-1.14;52.70;101609.47;4451922;32;34373;-79
2024/01/10 00:33:31;;;;;;;;;;;;;;;-1.03;52.03;101613.31;4458232;32;34798;-79
2024/01/10 00:35:59;;;;;;;;;;;;;;;-1.28;52.77;101606.47;4433984;32;32081;-79
2024/01/10 00:38:26;;;;;;;;;;;;;;;-1.33;52.48;101606.31;4434128;32;32916;-79
2024/01/10 00:40:54;;;;;;;;;;;;;;;-1.26;52.01;101609.97;4463425;32;33019;-79
2024/01/10 00:43:21;;;;;;;;;;;;;;;-1.23;52.05;101609.19;4448424;32;33177;-81
2024/01/10 00:45:48;;;;;;;;;;;;;;;-1.06;51.56;101605.44;4461271;32;33049;-80
2024/01/10 00:48:19;;;;;;;;;;;;;;;-1.33;52.40;101616.66;4460416;32;34585;-80
2024/01/10 00:50:47;;;;;;;;;;;;;;;-1.44;52.93;101615.41;4459266;32;34679;-80
2024/01/10 00:53:15;;;;;;;;;;;;;;;-1.30;52.79;101613.28;4464424;32;34255;-80
2024/01/10 00:55:42;;;;;;;;;;;;;;;-1.10;51.84;101607.03;4445937;32;33412;-80
2024/01/10 00:58:10;;;;;;;;;;;;;;;-1.08;51.78;101612.28;4448043;32;34487;-80
2024/01/10 01:00:38;;;;;;;;;;;;;;;-1.11;51.45;101609.59;4464381;32;33734;-81
2024/01/10 01:03:06;;;;;;;;;;;;;;;-1.17;51.43;101609.41;4448665;32;34532;-80
2024/01/10 01:05:34;;;;;;;;;;;;;;;-1.26;52.03;101614.28;4449772;32;32291;-80
2024/01/10 01:08:01;;;;;;;;;;;;;;;-1.55;52.97;101609.87;4435768;32;34329;-80
2024/01/10 01:10:29;;;;;;;;;;;;;;;-1.81;53.55;101619.28;4459600;32;35014;-80
2024/01/10 01:12:56;;;;;;;;;;;;;;;-1.71;53.31;101614.44;4450343;32;33241;-80
2024/01/10 01:15:24;;;;;;;;;;;;;;;-1.32;52.39;101614.97;4462689;32;33541;-80
2024/01/10 01:17:51;;;;;;;;;;;;;;;-1.17;51.70;101625.81;4463531;32;34090;-80
2024/01/10 01:20:19;;;;;;;;;;;;;;;-1.20;51.67;101614.47;4463304;32;33803;-80
2024/01/10 01:22:46;;;;;;;;;;;;;;;-1.63;52.89;101613.00;4461712;32;33115;-81
2024/01/10 01:25:14;;;;;;;;;;;;;;;-1.69;53.36;101623.16;4441374;32;32211;-81
2024/01/10 01:27:41;;;;;;;;;;;;;;;-1.65;53.40;101625.03;4446657;32;33214;-81
2024/01/10 01:30:11;;;;;;;;;;;;;;;-1.59;53.28;101617.47;4434327;32;33046;-81
2024/01/10 01:32:39;;;;;;;;;;;;;;;-1.55;53.04;101619.34;4453901;32;34566;-81
2024/01/10 01:35:06;;;;;;;;;;;;;;;-1.61;52.70;101613.97;4447150;32;33395;-81
2024/01/10 01:37:34;;;;;;;;;;;;;;;-1.91;53.79;101621.50;4447493;32;33378;-80
2024/01/10 01:40:01;;;;;;;;;;;;;;;-1.88;53.56;101621.62;4461602;32;34220;-81
2024/01/10 01:42:29;;;;;;;;;;;;;;;-1.72;53.43;101623.06;4432233;32;32938;-80
2024/01/10 01:44:56;;;;;;;;;;;;;;;-1.64;53.07;101616.44;4446745;32;33466;-81
2024/01/10 01:47:24;;;;;;;;;;;;;;;-1.58;52.53;101616.63;4463334;32;33707;-81
2024/01/10 01:49:51;;;;;;;;;;;;;;;-1.40;51.88;101617.28;4461245;32;33971;-81
2024/01/10 01:52:19;;;;;;;;;;;;;;;-1.69;52.08;101618.88;4449448;32;34496;-81
2024/01/10 01:54:47;;;;;;;;;;;;;;;-1.75;52.44;101617.78;4446964;32;32670;-81
2024/01/10 01:57:14;;;;;;;;;;;;;;;-1.93;52.51;101618.00;4450428;32;33266;-81
2024/01/10 01:59:41;;;;;;;;;;;;;;;-1.76;52.39;101610.81;4446553;32;33781;-81
2024/01/10 02:02:09;;;;;;;;;;;;;;;-1.83;52.37;101610.59;4434525;32;34556;-81
2024/01/10 02:04:37;;;;;;;;;;;;;;;-1.71;52.32;101598.91;4452997;32;33411;-81
2024/01/10 02:07:04;;;;;;;;;;;;;;;-1.79;52.34;101613.31;4447892;32;33901;-81
2024/01/10 02:09:32;;;;;;;;;;;;;;;-1.70;52.17;101601.56;4461636;32;34254;-81
2024/01/10 02:11:59;;;;;;;;;;;;;;;-1.65;52.09;101596.56;4458472;32;34515;-81
2024/01/10 02:14:27;;;;;;;;;;;;;;;-1.49;51.29;101601.41;4439154;32;32394;-81
2024/01/10 02:16:55;;;;;;;;;;;;;;;-1.94;52.64;101611.94;4466003;32;34864;-81
2024/01/10 02:19:23;;;;;;;;;;;;;;;-1.87;52.15;101603.56;4461738;32;34287;-81
2024/01/10 02:21:51;;;;;;;;;;;;;;;-1.74;52.06;101602.28;4459763;32;33844;-81
2024/01/10 02:24:18;;;;;;;;;;;;;;;-1.77;51.59;101603.88;4461335;32;33679;-81
2024/01/10 02:26:46;;;;;;;;;;;;;;;-1.93;52.47;101602.47;4431760;32;33897;-81
2024/01/10 02:29:13;;;;;;;;;;;;;;;-2.06;53.31;101603.72;4450957;32;33691;-81
2024/01/10 02:31:42;;;;;;;;;;;;;;;-2.02;53.07;101597.84;4463273;32;33753;-82
2024/01/10 02:34:09;;;;;;;;;;;;;;;-2.10;53.36;101596.66;4448800;32;33473;-83
2024/01/10 02:36:37;;;;;;;;;;;;;;;-2.10;53.53;101599.25;4449331;32;33370;-83
2024/01/10 02:39:04;;;;;;;;;;;;;;;-1.93;52.91;101592.13;4446467;32;35034;-82
2024/01/10 02:41:31;;;;;;;;;;;;;;;-1.81;52.42;101602.87;4434546;32;34297;-82
2024/01/10 02:43:59;;;;;;;;;;;;;;;-1.94;52.84;101593.81;4446313;32;33637;-82
2024/01/10 02:46:30;;;;;;;;;;;;;;;-1.97;52.93;101596.28;4447029;32;33428;-82
2024/01/10 02:48:57;;;;;;;;;;;;;;;-2.23;53.92;101597.94;4461303;32;33852;-84
2024/01/10 02:51:26;;;;;;;;;;;;;;;-2.19;53.74;101592.03;4427121;32;34930;-82
2024/01/10 02:53:53;;;;;;;;;;;;;;;-2.12;53.14;101595.75;4457759;32;33420;-82
2024/01/10 02:56:20;;;;;;;;;;;;;;;-2.16;53.04;101592.16;4446945;32;35021;-82
2024/01/10 02:58:48;;;;;;;;;;;;;;;-2.22;53.08;101593.66;4459549;32;34066;-80
2024/01/10 03:01:16;;;;;;;;;;;;;;;-2.42;53.23;101604.16;4460046;32;33172;-80
2024/01/10 03:03:43;;;;;;;;;;;;;;;-2.38;53.17;101603.41;4448429;32;33295;-80
2024/01/10 03:06:11;;;;;;;;;;;;;;;-2.38;53.41;101607.69;4446548;32;33780;-80
2024/01/10 03:08:38;;;;;;;;;;;;;;;-2.14;52.77;101598.25;4459530;32;35021;-80
2024/01/10 03:11:06;;;;;;;;;;;;;;;-2.24;53.43;101595.28;4445906;32;35036;-80
2024/01/10 03:13:34;;;;;;;;;;;;;;;-2.26;53.38;101590.06;4421714;32;32210;-80
2024/01/10 03:16:01;;;;;;;;;;;;;;;-2.30;53.48;101595.06;4459531;32;34666;-80
2024/01/10 03:18:28;;;;;;;;;;;;;;;-2.35;53.83;101593.19;4456866;32;32680;-80
2024/01/10 03:20:56;;;;;;;;;;;;;;;-2.01;53.00;101604.78;4435262;32;34106;-80
2024/01/10 03:23:24;;;;;;;;;;;;;;;-2.11;53.02;101598.38;4445771;32;33198;-80
2024/01/10 03:25:51;;;;;;;;;;;;;;;-1.94;52.16;101603.31;4447410;32;32543;-80
2024/01/10 03:28:19;;;;;;;;;;;;;;;-2.09;52.53;101603.59;4461646;32;34074;-80
2024/01/10 03:30:46;;;;;;;;;;;;;;;-2.26;52.73;101604.72;4458441;32;33314;-80
2024/01/10 03:33:15;;;;;;;;;;;;;;;-2.15;52.48;101604.25;4436877;32;32299;-79
2024/01/10 03:35:43;;;;;;;;;;;;;;;-2.23;52.46;101599.63;4433296;32;32502;-79
2024/01/10 03:38:10;;;;;;;;;;;;;;;-2.42;53.04;101609.31;4448620;32;34953;-79
2024/01/10 03:40:37;;;;;;;;;;;;;;;-2.36;53.04;101609.53;4444429;32;34082;-80
2024/01/10 03:43:05;;;;;;;;;;;;;;;-2.12;52.62;101601.81;4433983;32;32267;-79
2024/01/10 03:45:33;;;;;;;;;;;;;;;-2.34;52.79;101597.53;4462172;32;33181;-80
2024/01/10 03:48:00;;;;;;;;;;;;;;;-2.32;52.66;101590.72;4449125;32;33617;-80
2024/01/10 03:50:28;;;;;;;;;;;;;;;-2.25;52.75;101589.22;4447112;32;34053;-79
2024/01/10 03:52:55;;;;;;;;;;;;;;;-2.55;53.75;101599.31;4458636;32;32298;-80
2024/01/10 03:55:22;;;;;;;;;;;;;;;-2.66;54.25;101596.34;4432508;32;33182;-80
2024/01/10 03:57:50;;;;;;;;;;;;;;;-2.65;53.83;101602.38;4449340;32;34293;-80
2024/01/10 04:00:18;;;;;;;;;;;;;;;-2.60;53.58;101600.84;4445994;32;35065;-80
2024/01/10 04:02:47;;;;;;;;;;;;;;;-2.29;52.71;101607.16;4452981;32;32125;-80
2024/01/10 04:05:20;;;;;;;;;;;;;;;-2.33;52.82;101601.91;4447785;32;33772;-81
2024/01/10 04:07:48;;;;;;;;;;;;;;;-2.20;52.27;101599.75;4462322;32;34980;-81
2024/01/10 04:10:15;;;;;;;;;;;;;;;-2.25;52.39;101593.53;4433855;32;33392;-81
2024/01/10 04:12:43;;;;;;;;;;;;;;;-2.34;52.74;101597.53;4460978;32;33393;-81
2024/01/10 04:15:11;;;;;;;;;;;;;;;-2.38;52.60;101595.66;4435155;32;34335;-81
2024/01/10 04:17:39;;;;;;;;;;;;;;;-2.28;52.13;101593.41;4447235;32;33091;-80
2024/01/10 04:20:06;;;;;;;;;;;;;;;-2.60;53.01;101598.28;4458477;32;34234;-81
2024/01/10 04:22:34;;;;;;;;;;;;;;;-2.65;53.27;101600.69;4447321;32;34221;-81
2024/01/10 04:25:03;;;;;;;;;;;;;;;-2.47;52.70;101608.28;4459320;32;34509;-81
2024/01/10 04:27:32;;;;;;;;;;;;;;;-2.72;53.18;101611.59;4434505;32;33271;-80
2024/01/10 04:29:59;;;;;;;;;;;;;;;-2.67;52.85;101609.19;4434896;32;33243;-80
2024/01/10 04:32:27;;;;;;;;;;;;;;;-2.50;52.74;101605.56;4448125;32;34213;-80
2024/01/10 04:34:54;;;;;;;;;;;;;;;-2.53;52.73;101613.19;4438291;32;32748;-80
2024/01/10 04:37:22;;;;;;;;;;;;;;;-2.39;52.18;101612.00;4434880;32;32780;-81
2024/01/10 04:39:49;;;;;;;;;;;;;;;-2.74;53.13;101609.78;4449744;32;34011;-81
2024/01/10 04:42:17;;;;;;;;;;;;;;;-2.78;53.00;101613.06;4461093;32;33577;-81
2024/01/10 04:44:44;;;;;;;;;;;;;;;-2.84;52.45;101609.41;4447684;32;33382;-81
2024/01/10 04:47:12;;;;;;;;;;;;;;;-3.00;52.58;101608.72;4451415;32;34134;-80
2024/01/10 04:49:39;;;;;;;;;;;;;;;-2.93;52.05;101616.81;4463904;32;34151;-81
2024/01/10 04:52:07;;;;;;;;;;;;;;;-2.77;52.02;101622.59;4446840;32;32394;-80
2024/01/10 04:54:34;;;;;;;;;;;;;;;-2.51;51.54;101614.13;4445905;32;34245;-80
2024/01/10 04:57:02;;;;;;;;;;;;;;;-2.61;51.91;101614.62;4435202;32;32978;-80
2024/01/10 04:59:29;;;;;;;;;;;;;;;-2.53;51.61;101613.19;4462204;32;34834;-80
2024/01/10 05:01:57;;;;;;;;;;;;;;;-2.48;51.49;101616.81;4459765;32;32635;-80
2024/01/10 05:04:24;;;;;;;;;;;;;;;-2.42;51.39;101617.09;4446544;32;34246;-80
2024/01/10 05:06:52;;;;;;;;;;;;;;;-2.56;51.71;101613.09;4436009;32;32932;-80
2024/01/10 05:09:19;;;;;;;;;;;;;;;-2.53;51.54;101617.47;4460396;32;34394;-81
2024/01/10 05:11:48;;;;;;;;;;;;;;;-2.53;51.48;101610.59;4447167;32;33059;-81
2024/01/10 05:14:16;;;;;;;;;;;;;;;-2.45;51.12;101614.38;4460254;32;33830;-80
2024/01/10 05:16:43;;;;;;;;;;;;;;;-2.29;50.72;101628.75;4450328;32;34462;-80
2024/01/10 05:19:11;;;;;;;;;;;;;;;-2.47;50.81;101631.53;4461723;32;33487;-81
2024/01/10 05:21:39;;;;;;;;;;;;;;;-2.59;51.23;101619.00;4464593;32;34247;-81
2024/01/10 05:24:06;;;;;;;;;;;;;;;-2.52;51.07;101627.88;4447055;32;33728;-81
2024/01/10 05:26:34;;;;;;;;;;;;;;;-2.61;51.20;101630.13;4461423;32;33439;-81
2024/01/10 05:29:02;;;;;;;;;;;;;;;-2.25;50.15;101630.63;4460270;32;34748;-81
2024/01/10 05:31:29;;;;;;;;;;;;;;;-2.81;51.88;101625.84;4447415;32;32813;-80
2024/01/10 05:33:57;;;;;;;;;;;;;;;-2.95;52.22;101633.06;4459773;32;33672;-80
2024/01/10 05:36:24;;;;;;;;;;;;;;;-2.77;51.81;101628.62;4463793;32;35036;-80
2024/01/10 05:38:52;;;;;;;;;;;;;;;-2.86;51.85;101626.56;4460689;32;34625;-80
2024/01/10 05:41:19;;;;;;;;;;;;;;;-2.65;51.09;101625.66;4450498;32;33074;-80
2024/01/10 05:43:47;;;;;;;;;;;;;;;-2.84;50.99;101627.53;4458189;32;35359;-80
2024/01/10 05:46:16;;;;;;;;;;;;;;;-2.79;51.16;101619.06;4462788;32;33908;-80
2024/01/10 05:48:43;;;;;;;;;;;;;;;-2.59;50.96;101618.12;4459684;32;33986;-80
2024/01/10 05:51:13;;;;;;;;;;;;;;;-2.67;51.21;101617.81;4448630;32;33495;-80
2024/01/10 05:53:41;;;;;;;;;;;;;;;-2.62;50.96;101618.00;4433415;32;34234;-80
2024/01/10 05:56:08;;;;;;;;;;;;;;;-2.72;51.49;101621.06;4461330;32;33852;-81
2024/01/10 05:58:36;;;;;;;;;;;;;;;-2.85;52.13;101620.59;4458221;32;34185;-80
2024/01/10 06:01:04;;;;;;;;;;;;;;;-2.90;52.05;101628.94;4446284;32;32406;-80
2024/01/10 06:03:32;;;;;;;;;;;;;;;-2.88;52.09;101635.09;4460620;32;34946;-80
2024/01/10 06:05:59;;;;;;;;;;;;;;;-2.81;52.02;101631.91;4461779;32;34144;-80
2024/01/10 06:08:28;;;;;;;;;;;;;;;-2.75;51.97;101636.44;4449090;32;32936;-80
2024/01/10 06:10:56;;;;;;;;;;;;;;;-2.93;52.67;101632.31;4450619;32;33294;-80
2024/01/10 06:13:23;;;;;;;;;;;;;;;-2.93;52.90;101627.16;4459243;32;33853;-80
2024/01/10 06:15:51;;;;;;;;;;;;;;;-2.79;52.13;101637.16;4446976;32;33940;-80
2024/01/10 06:18:19;;;;;;;;;;;;;;;-2.70;51.71;101645.28;4437512;32;33455;-81
2024/01/10 06:20:47;;;;;;;;;;;;;;;-2.63;51.22;101644.69;4448339;32;33470;-82
2024/01/10 06:23:15;;;;;;;;;;;;;;;-2.83;51.79;101642.19;4432749;32;33150;-81
2024/01/10 06:25:42;;;;;;;;;;;;;;;-2.59;51.10;101649.16;4460938;32;33899;-81
2024/01/10 06:28:10;;;;;;;;;;;;;;;-2.98;51.70;101645.88;4455851;32;33909;-81
2024/01/10 06:30:37;;;;;;;;;;;;;;;-2.75;51.59;101641.59;4436032;32;32617;-81
2024/01/10 06:33:06;;;;;;;;;;;;;;;-2.58;51.21;101653.50;4452257;32;33309;-81
2024/01/10 06:35:34;;;;;;;;;;;;;;;-2.64;51.04;101640.34;4452111;32;34300;-80
2024/01/10 06:38:03;;;;;;;;;;;;;;;-2.54;50.92;101647.63;4464159;32;34236;-81
2024/01/10 06:40:32;;;;;;;;;;;;;;;-2.54;50.51;101647.63;4462162;32;33246;-80
2024/01/10 06:42:59;;;;;;;;;;;;;;;-2.57;50.80;101648.38;4465776;32;34605;-80
2024/01/10 06:45:26;;;;;;;;;;;;;;;-2.76;51.39;101655.34;4436554;32;34255;-80
2024/01/10 06:47:54;;;;;;;;;;;;;;;-2.96;52.35;101660.63;4460086;32;34070;-81
2024/01/10 06:50:22;;;;;;;;;;;;;;;-3.19;53.02;101659.66;4462552;32;32834;-81
2024/01/10 06:52:50;;;;;;;;;;;;;;;-2.98;53.23;101663.97;4459999;32;34148;-81
2024/01/10 06:55:18;;;;;;;;;;;;;;;-2.99;53.13;101657.94;4436884;32;34338;-81
2024/01/10 06:57:46;;;;;;;;;;;;;;;-2.72;52.30;101662.41;4453555;32;32457;-79
2024/01/10 07:00:13;;;;;;;;;;;;;;;-2.98;52.96;101664.84;4462613;32;33277;-80
2024/01/10 07:02:41;;;;;;;;;;;;;;;-2.86;52.68;101675.66;4460157;32;33393;-79
2024/01/10 07:05:09;;;;;;;;;;;;;;;-2.85;52.72;101661.94;4440238;32;33074;-80
2024/01/10 07:07:37;;;;;;;;;;;;;;;-2.91;52.87;101674.59;4451868;32;33374;-80
2024/01/10 07:10:05;;;;;;;;;;;;;;;-2.71;52.52;101680.56;4463596;32;34434;-80
2024/01/10 07:12:33;;;;;;;;;;;;;;;-2.53;52.11;101679.56;4460708;32;33329;-80
2024/01/10 07:15:03;;;;;;;;;;;;;;;-2.46;51.96;101682.44;4452497;32;33367;-80
2024/01/10 07:17:31;;;;;;;;;;;;;;;-2.60;52.18;101675.84;4449276;32;34347;-80
2024/01/10 07:19:58;;;;;;;;;;;;;;;-2.55;52.19;101671.75;4449221;32;32324;-80
2024/01/10 07:22:26;;;;;;;;;;;;;;;-2.48;52.27;101683.19;4462504;32;34261;-80
2024/01/10 07:24:54;;;;;;;;;;;;;;;-2.42;52.22;101684.34;4460394;32;34792;-81
2024/01/10 07:27:21;;;;;;;;;;;;;;;-2.57;52.92;101675.94;4440219;32;33280;-80
2024/01/10 07:29:48;;;;;;;;;;;;;;;-2.51;53.52;101676.22;4464735;32;33506;-80
2024/01/10 07:32:16;;;;;;;;;;;;;;;-2.38;53.06;101675.84;4461028;32;33891;-80
2024/01/10 07:34:44;;;;;;;;;;;;;;;-2.30;52.74;101668.38;4450894;32;33518;-80
2024/01/10 07:37:12;;;;;;;;;;;;;;;-2.19;52.67;101677.44;4460992;32;35068;-80
2024/01/10 07:39:40;;;;;;;;;;;;;;;-2.28;52.97;101671.03;4449600;32;32402;-80
2024/01/10 07:42:08;;;;;;;;;;;;;;;-2.13;52.97;101674.22;4464310;32;33535;-80
2024/01/10 07:44:35;;;;;;;;;;;;;;;-2.08;53.20;101670.97;4447578;32;34622;-80
2024/01/10 07:47:03;;;;;;;;;;;;;;;-1.81;52.40;101662.44;4449929;32;35128;-80
2024/01/10 07:49:32;;;;;;;;;;;;;;;-1.86;52.51;101661.41;4461498;32;33044;-79
2024/01/10 07:52:00;;;;;;;;;;;;;;;-1.77;52.21;101666.03;4453939;32;34648;-80
2024/01/10 07:54:28;;;;;;;;;;;;;;;-1.58;52.22;101668.44;4462172;32;30526;-80
2024/01/10 07:56:55;;;;;;;;;;;;;;;-1.56;52.03;101669.41;4451387;32;33821;-80
2024/01/10 07:59:22;;;;;;;;;;;;;;;-1.33;51.29;101665.91;4452287;32;31950;-79
2024/01/10 08:01:58;;;;;;;;;;;;;;;-1.32;50.73;101665.06;4462305;32;33795;-80
2024/01/10 08:04:26;;;;;;;;;;;;;;;-1.30;50.52;101676.34;4449187;32;34183;-80
2024/01/10 08:06:54;;;;;;;;;;;;;;;-1.11;49.05;101664.03;4450647;32;33652;-80
2024/01/10 08:09:26;;;;;;;;;;;;;;;-1.02;47.96;101666.94;4451636;32;32376;-80
2024/01/10 08:11:53;;;;;;;;;;;;;;;-0.78;47.42;101665.13;4465436;32;34579;-79
2024/01/10 08:14:20;;;;;;;;;;;;;;;-0.85;46.34;101660.59;4452030;32;34365;-80
2024/01/10 08:16:48;;;;;;;;;;;;;;;-0.63;44.77;101661.25;4464528;32;34344;-80
2024/01/10 08:19:16;;;;;;;;;;;;;;;-0.65;43.95;101663.81;4453649;32;32386;-82
2024/01/10 08:21:44;;;;;;;;;;;;;;;-0.42;43.30;101664.53;4451154;32;32855;-81
2024/01/10 08:24:11;;;;;;;;;;;;;;;-0.32;43.02;101669.16;4466636;32;33027;-80
2024/01/10 08:26:39;;;;;;;;;;;;;;;-0.22;42.65;101675.53;4461454;32;34705;-80
2024/01/10 08:29:06;;;;;;;;;;;;;;;-0.27;43.99;101672.78;4441086;32;33135;-80
2024/01/10 08:31:34;;;;;;;;;;;;;;;0.00;44.07;101669.25;4461275;32;34635;-80
2024/01/10 08:34:02;;;;;;;;;;;;;;;0.05;44.50;101671.97;4443757;32;33011;-80
2024/01/10 08:36:30;;;;;;;;;;;;;;;0.15;44.98;101672.28;4447921;32;33056;-79
2024/01/10 08:38:57;;;;;;;;;;;;;;;0.29;44.91;101682.19;4450286;32;32274;-80
2024/01/10 08:41:25;;;;;;;;;;;;;;;0.41;44.69;101678.19;4467040;32;33324;-80
2024/01/10 08:43:53;;;;;;;;;;;;;;;0.54;44.04;101671.63;4463420;32;34152;-80
2024/01/10 08:46:20;;;;;;;;;;;;;;;0.53;42.55;101669.00;4464075;32;33760;-80
2024/01/10 08:48:48;;;;;;;;;;;;;;;0.69;42.48;101677.22;4454514;32;32168;-80
2024/01/10 08:51:16;;;;;;;;;;;;;;;0.63;41.40;101673.59;4449196;32;34158;-80
2024/01/10 08:53:44;;;;;;;;;;;;;;;0.90;41.31;101670.81;4438772;32;33285;-80
2024/01/10 08:56:11;;;;;;;;;;;;;;;1.09;41.05;101660.03;4460865;32;34541;-80
2024/01/10 08:58:39;;;;;;;;;;;;;;;1.50;40.93;101666.22;4448139;32;33199;-80
2024/01/10 09:01:08;;;;;;;;;;;;;;;1.61;40.04;101663.87;4448457;32;32324;-80
2024/01/10 09:03:35;;;;;;;;;;;;;;;1.66;40.76;101667.47;4449450;32;34159;-80
2024/01/10 09:06:04;;;;;;;0.95;0.85;;;;;;;1.98;39.65;101664.69;4463916;32;34254;-80
2024/01/10 09:08:39;;;;;;;2.12;1.20;;;;;;;1.85;38.18;101670.47;4452629;32;32917;-80
2024/01/10 09:11:07;;;;;;;1.23;1.23;;;;;;;1.71;38.32;101670.16;4463384;32;33498;-80
2024/01/10 09:13:34;;;;;;;0.17;0.17;;;;;;;2.00;38.42;101663.00;4451745;32;33886;-81
2024/01/10 09:16:03;;;;;;;0.85;0.43;;;;;;;2.41;37.61;101645.56;4454402;32;32261;-80
2024/01/10 09:18:30;;;;;;;3.33;1.52;;;;;;;2.70;37.65;101646.09;4448937;32;34396;-81
2024/01/10 09:20:58;;;;;;;1.73;1.62;;;;;;;2.76;36.42;101638.41;4458714;32;33607;-80
2024/01/10 09:23:27;;;;;;;0.80;0.75;;;;;;;2.98;33.30;101636.13;4447856;32;32872;-81
2024/01/10 09:25:55;;;;;;;0.10;0.10;;;;;;;3.05;34.87;101638.88;4450343;32;33434;-82
2024/01/10 09:28:23;;;;;;;0.95;0.95;;;;;;;3.18;35.70;101634.75;4449056;32;32688;-80
2024/01/10 09:30:51;;;;;;;0.10;0.10;;;;;;;3.10;34.78;101633.75;4449207;32;33381;-80
2024/01/10 09:33:19;;;;;;;3.15;1.58;;;;;;;3.51;34.57;101629.16;4461247;32;33575;-82
2024/01/10 09:35:47;;;;;;;0.93;0.93;;;;;;;3.69;35.00;101625.03;4447696;32;34155;-80
2024/01/10 09:38:14;;;;;;;1.55;1.40;;;;;;;4.09;31.44;101616.84;4460054;32;32747;-80
2024/01/10 09:40:43;;;;;;;0.10;0.10;;;;;;;4.17;31.38;101619.53;4449178;32;32848;-80
2024/01/10 09:43:11;;;;;;;0.70;0.50;;;;;;;4.26;30.83;101619.66;4449184;32;33842;-80
2024/01/10 09:45:46;;;;;;;2.08;1.98;;;;;;;4.31;30.66;101617.09;4463468;32;34185;-80
2024/01/10 09:48:15;;;;;;;0.80;0.80;;;;;;;4.20;30.41;101624.81;4466422;32;34466;-80
2024/01/10 09:50:43;;;;;;;0.90;0.82;;;;;;;4.44;30.47;101623.34;4461677;32;33985;-80
2024/01/10 09:53:21;;;;;;;0.52;0.52;;;;;;;4.41;29.99;101610.22;4461323;32;34311;-80
2024/01/10 09:55:50;;;;;;;3.35;2.95;;;;;;;4.80;28.87;101609.75;4433202;32;33630;-80
2024/01/10 09:58:18;;;;;;;0.20;0.20;;;;;;;4.97;26.79;101605.50;4450224;32;32467;-80
2024/01/10 10:00:46;;;;;;;0.10;0.10;;;;;;;4.80;27.28;101602.75;4459310;32;33359;-80
2024/01/10 10:03:14;;;;;;;1.75;1.23;;;;;;;4.79;27.29;101605.34;4436998;32;34130;-80
2024/01/10 10:05:42;;;;;;;0.70;0.70;;;;;;;4.59;26.87;101597.31;4442523;32;32987;-80
2024/01/10 10:08:12;;;;;;;1.15;1.05;;;;;;;5.17;26.36;101592.56;4460968;32;33599;-80
2024/01/10 10:10:44;;;;;;;0.75;0.75;;;;;;;5.11;26.04;101593.37;4453099;32;32934;-80
2024/01/10 10:13:24;;;;;;;1.02;0.60;;;;;;;5.01;28.24;101588.09;4466415;32;33154;-80
2024/01/10 10:16:03;;;;;;;2.28;0.75;;;;;;;4.82;29.60;101590.56;4447128;32;34844;-80
2024/01/10 10:18:34;;;;;;;1.77;1.65;;;;;;;4.90;29.32;101595.00;4445388;32;32413;-80
2024/01/10 10:21:13;;;;;;;0.43;0.43;;;;;;;5.39;28.86;101589.22;4462613;32;33627;-80
2024/01/10 10:23:43;;;;;;;0.15;0.15;;;;;;;5.70;27.77;101581.53;4461843;32;33998;-81
2024/01/10 10:26:14;;;;;;;0.40;0.40;;;;;;;5.63;28.56;101582.37;4459197;32;34070;-80
2024/01/10 10:28:42;;;;;;;0.32;0.32;;;;;;;5.97;29.23;101574.69;4433827;32;32139;-81
2024/01/10 10:31:10;;;;;;;1.20;1.02;;;;;;;6.00;29.21;101572.94;4461006;32;34340;-80
2024/01/10 10:33:38;;;;;;;2.92;2.67;;;;;;;6.50;26.89;101560.81;4457430;32;30676;-81
2024/01/10 10:36:07;;;;;;;1.02;1.02;;;;;;;6.34;27.26;101558.16;4453586;32;33617;-80
2024/01/10 10:38:39;;;;;;;2.35;1.87;;;;;;;6.54;27.40;101549.44;4449523;32;34020;-81
2024/01/10 10:41:10;;;;;;;2.30;2.17;;;;;;;6.51;28.28;101552.09;4461135;32;33377;-80
2024/01/10 10:43:39;;;;;;;5.03;2.85;;;;;;;6.78;27.05;101552.06;4460325;32;31889;-81
2024/01/10 10:46:14;;;;;;;1.80;1.70;;;;;;;6.96;26.03;101545.94;4445693;32;34010;-80
2024/01/10 10:48:43;;;;;;;1.12;1.12;;;;;;;6.91;26.29;101547.69;4447761;32;34724;-81
2024/01/10 10:51:28;;;;;;;6.72;3.45;;;;;;;6.53;27.00;101542.44;4461256;32;33150;-81
2024/01/10 10:53:56;;;;;;;0.20;0.20;;;;;;;6.52;28.26;101541.56;4448704;32;33985;-80
2024/01/10 10:56:24;;;;;;;1.20;1.20;;;;;;;6.66;28.33;101538.97;4446280;32;32638;-80
2024/01/10 10:58:53;;;;;;;2.08;1.80;;;;;;;6.47;28.58;101545.06;4450051;32;32077;-81
2024/01/10 11:01:22;;;;;;;0.00;0.00;;;;;;;6.31;29.63;101542.41;4434271;32;34636;-81
2024/01/10 11:03:49;;;;;;;0.98;0.98;;;;;;;6.48;29.51;101531.94;4473651;31;33025;-81
2024/01/10 11:06:17;;;;;;;3.00;2.72;;;;;;;6.64;29.46;101524.94;4433846;32;32571;-80
2024/01/10 11:09:10;;;;;;;3.20;1.42;;;;;;;6.91;29.16;101524.06;4453293;32;31789;-80
2024/01/10 11:11:51;;;;;;;1.02;1.02;;;;;;;7.22;28.91;101517.00;4456066;32;32012;-81
2024/01/10 11:14:42;;;;;;;1.80;1.70;;;;;;;7.35;28.04;101518.69;4468806;32;31571;-81
2024/01/10 11:17:35;;;;;;;0.88;0.88;;;;;;;7.26;28.28;101509.97;4463791;32;34152;-82
2024/01/10 11:20:09;;;;;;;0.88;0.88;;;;;;;6.56;29.60;101514.47;4453974;32;32358;-80
2024/01/10 11:22:53;;;;;;;0.68;0.68;;;;;;;6.86;29.16;101505.69;4464193;32;33639;-81
2024/01/10 11:25:21;;;;;;;1.55;1.45;;;;;;;6.73;29.29;101503.06;4466015;32;33018;-81
2024/01/10 11:27:52;;;;;;;1.25;1.25;;;;;;;6.58;30.10;101503.94;4444839;32;34682;-80
2024/01/10 11:30:35;;;;;;;1.58;1.52;;;;;;;6.14;31.30;101504.81;4465317;32;32941;-81
2024/01/10 11:33:22;;;;;;;2.85;2.62;;;;;;;6.51;30.84;101497.84;4468348;32;33839;-81
2024/01/10 11:36:26;;;;;;;2.15;2.05;;;;;;;7.02;29.54;101492.53;4465017;32;34106;-81
2024/01/10 11:39:04;;;;;;;0.52;0.52;;;;;;;6.20;30.80;101502.19;4411408;32;33746;-80
2024/01/10 11:41:36;;;;;;;;;;;;;;;6.26;31.35;101490.81;4472061;32;33502;-81
2024/01/10 11:44:19;;;;;;;1.27;1.17;;;;;;;6.60;30.91;101489.09;4455690;32;33373;-80
2024/01/10 11:46:49;;;;;;;1.62;1.42;;;;;;;6.45;31.57;101494.31;4466489;32;96777;-80
2024/01/10 11:49:18;;;;;;;6.53;2.40;;;;;;;6.61;30.86;101482.97;4454289;32;34479;-81
2024/01/10 11:51:53;;;;;;;1.42;1.35;;;;;;;6.64;31.19;101493.44;4464394;32;33982;-81
2024/01/10 11:54:43;;;;;;;2.37;0.77;;;;;;;6.44;32.33;101493.44;4453938;32;33402;-81
2024/01/10 11:57:23;;;;;;;2.65;2.45;;;;;;;6.23;32.53;101485.59;4453109;32;34854;-81
2024/01/10 11:59:52;;;;;;;2.83;1.83;;;;;;;6.68;31.63;101482.94;4450851;32;34578;-81
2024/01/10 12:02:21;;;;;;;2.37;2.17;;;;;;;6.52;31.61;101483.84;4465827;32;33847;-81
2024/01/10 12:04:49;;;;;;;1.60;1.50;;;;;;;6.79;31.62;101482.06;4452647;32;32565;-80
2024/01/10 12:07:18;;;;;;;1.48;1.37;;;;;;;6.74;31.36;101468.97;4464787;32;33713;-80
2024/01/10 12:09:47;;;;;;;1.52;1.42;;;;;;;6.75;31.21;101470.72;4464784;32;34183;-80
2024/01/10 12:12:15;;;;;;;1.35;1.25;;;;;;;6.24;32.16;101472.47;4453281;32;33662;-81
2024/01/10 12:14:44;;;;;;;0.88;0.85;;;;;;;6.48;32.12;101470.72;4452118;32;34571;-81
2024/01/10 12:17:13;;;;;;;1.62;1.52;;;;;;;6.50;31.85;101471.59;4450886;32;33933;-81
2024/01/10 12:19:44;;;;;;;0.65;0.65;;;;;;;6.68;31.15;101458.44;4449324;32;34215;-81
2024/01/10 12:22:16;;;;;;;2.42;2.05;;;;;;;6.98;31.47;101457.53;4450417;32;32156;-81
2024/01/10 12:24:48;;;;;;;1.85;1.80;;;;;;;6.97;31.98;101454.88;4454184;32;32736;-81
2024/01/10 12:27:18;;;;;;;4.35;3.95;;;;;;;6.94;32.80;101455.78;4450118;32;33143;-81